Time;durP1;ratioP1;P1;durP2;ratioP2;P2;SDS_P1;SDS_P2;PMS_P1;PMS_P2;Temp;Humidity;BMP_temperature;BMP_pressure;BME280_temperature;BME280_humidity;BME280_pressure;Samples;Min_cycle;Max_cycle;Signal;HPM_P1;HPM_P2
2021/03/15 05:45:18;;;;;;;70.70;43.40;;;;;;;2.66;100.00;97716.30;1734564;79;21180;-54
2021/03/15 05:48:18;;;;;;;70.20;42.03;;;;;;;2.77;100.00;97714.52;1716300;82;21193;-55
2021/03/15 05:51:41;;;;;;;90.97;58.23;;;;;;;2.87;100.00;97718.11;1727955;82;21272;-56
2021/03/15 05:55:01;;;;;;;98.30;60.53;;;;;;;2.95;100.00;97733.59;1728248;83;21453;-54
2021/03/15 05:58:08;;;;;;;193.70;87.40;;;;;;;3.02;100.00;97733.15;1728652;81;21789;-51
2021/03/15 06:01:12;;;;;;;91.67;47.57;;;;;;;3.11;100.00;97733.34;1732429;82;21166;-53
2021/03/15 06:04:04;;;;;;;76.93;40.70;;;;;;;3.22;100.00;97736.44;1693739;84;21166;-52
2021/03/15 06:06:41;;;;;;;124.93;57.57;;;;;;;3.23;100.00;97733.64;1743245;82;21195;-54
2021/03/15 06:09:31;;;;;;;87.33;43.03;;;;;;;3.29;100.00;97741.20;1685395;82;21151;-60
2021/03/15 06:12:01;;;;;;;65.10;40.97;;;;;;;3.38;100.00;97736.14;1690152;83;21875;-54
2021/03/15 06:14:31;;;;;;;109.45;54.03;;;;;;;3.43;100.00;97739.80;1718840;83;21567;-56
2021/03/15 06:17:01;;;;;;;76.13;45.97;;;;;;;3.51;100.00;97741.97;1728540;82;21122;-53
2021/03/15 06:19:35;;;;;;;158.17;82.67;;;;;;;3.54;100.00;97736.36;1686937;84;21170;-48
2021/03/15 06:22:05;;;;;;;311.53;209.93;;;;;;;3.59;100.00;97730.89;1714174;84;21182;-51
2021/03/15 06:24:37;;;;;;;124.77;74.33;;;;;;;3.63;99.89;97732.63;1722207;82;21177;-53
2021/03/15 06:27:08;;;;;;;618.33;507.67;;;;;;;3.66;99.53;97739.55;1731195;82;22117;-53
2021/03/15 06:29:39;;;;;;;72.60;48.00;;;;;;;3.63;98.99;97736.04;1735966;82;21122;-51
2021/03/15 06:32:09;;;;;;;77.13;58.30;;;;;;;3.67;99.28;97735.14;1743408;82;21541;-53
2021/03/15 06:34:47;;;;;;;89.63;72.90;;;;;;;3.80;99.19;97737.85;1680516;84;21353;-58
2021/03/15 06:37:17;;;;;;;61.83;41.23;;;;;;;3.96;98.44;97736.74;1742494;82;21190;-52
2021/03/15 06:40:07;;;;;;;106.47;66.43;;;;;;;4.07;97.47;97738.81;1725067;83;21667;-54
2021/03/15 06:42:38;;;;;;;64.53;39.92;;;;;;;4.17;97.06;97738.43;1727644;82;21215;-56
2021/03/15 06:45:17;;;;;;;92.23;54.40;;;;;;;4.33;96.02;97743.83;1727757;81;21300;-56
2021/03/15 06:47:47;;;;;;;92.57;61.28;;;;;;;4.31;94.37;97732.28;1712783;83;21156;-53
2021/03/15 06:50:18;;;;;;;61.77;39.33;;;;;;;4.21;94.03;97726.12;1678617;83;21174;-54
2021/03/15 06:52:57;;;;;;;57.25;38.65;;;;;;;4.14;94.28;97733.62;1715961;83;21163;-54
2021/03/15 06:55:43;;;;;;;63.28;39.58;;;;;;;4.09;94.73;97739.41;1708963;83;21217;-51
2021/03/15 06:58:26;;;;;;;46.40;29.93;;;;;;;4.06;94.70;97736.38;1684647;85;21217;-54
2021/03/15 07:01:19;;;;;;;69.07;42.67;;;;;;;3.97;94.75;97741.76;1658937;84;21217;-59
2021/03/15 07:03:54;;;;;;;56.20;36.15;;;;;;;3.93;95.63;97742.33;1727083;83;21190;-56
2021/03/15 07:06:26;;;;;;;55.90;37.42;;;;;;;3.98;95.73;97742.56;1720143;83;21130;-56
2021/03/15 07:09:12;;;;;;;62.83;38.28;;;;;;;4.03;96.21;97744.59;1670880;83;21201;-53
2021/03/15 07:11:44;;;;;;;82.02;47.62;;;;;;;4.17;95.94;97744.95;1716367;83;21253;-56
2021/03/15 07:14:26;;;;;;;67.50;38.55;;;;;;;4.26;95.12;97747.21;1716053;83;21154;-58
2021/03/15 07:17:00;;;;;;;43.42;29.82;;;;;;;4.35;95.06;97738.70;1715589;83;21185;-59
2021/03/15 07:19:30;;;;;;;52.98;34.15;;;;;;;4.44;94.42;97745.87;1703994;83;21185;-58
2021/03/15 07:22:17;;;;;;;67.95;41.15;;;;;;;4.50;93.66;97746.40;1700835;84;21153;-55
2021/03/15 07:24:48;;;;;;;61.50;36.23;;;;;;;4.58;93.09;97739.69;1700971;83;21198;-52
2021/03/15 07:27:30;;;;;;;;;;;;;;;4.57;92.53;97740.69;1674906;84;21192;-54
2021/03/15 07:30:41;;;;;;;56.13;33.13;;;;;;;4.57;92.51;97732.06;1818422;77;21145;-56
2021/03/15 07:33:16;;;;;;;51.13;30.88;;;;;;;4.56;92.70;97729.95;1774460;78;21712;-56
2021/03/15 07:35:46;;;;;;;48.38;29.20;;;;;;;4.59;92.67;97733.96;1766312;79;21307;-54
2021/03/15 07:38:15;;;;;;;57.10;32.85;;;;;;;4.67;92.61;97731.98;1735549;81;21166;-56
2021/03/15 07:40:48;;;;;;;191.90;136.68;;;;;;;4.77;92.68;97738.95;1728043;83;21170;-48
2021/03/15 07:43:21;;;;;;;51.23;30.92;;;;;;;4.99;92.56;97735.67;1737411;81;21211;-57
2021/03/15 07:45:50;;;;;;;54.98;34.63;;;;;;;5.19;90.43;97736.19;1745178;82;21178;-54
2021/03/15 07:48:22;;;;;;;66.47;49.35;;;;;;;5.27;88.77;97730.24;1745900;81;21324;-59
2021/03/15 07:51:04;;;;;;;56.50;40.10;;;;;;;5.36;88.01;97737.90;1761854;81;21636;-56
2021/03/15 07:53:43;;;;;;;60.08;36.33;;;;;;;5.50;87.16;97736.87;1795178;79;21184;-54
2021/03/15 07:56:20;;;;;;;41.08;26.82;;;;;;;5.63;85.00;97734.77;1760652;79;21641;-57
2021/03/15 07:58:50;;;;;;;42.85;27.75;;;;;;;5.64;84.56;97733.25;1761105;79;21511;-57
2021/03/15 08:01:22;;;;;;;46.70;27.95;;;;;;;5.67;84.21;97722.37;1760670;79;21289;-53
2021/03/15 08:03:52;;;;;;;63.68;49.38;;;;;;;5.73;83.94;97729.91;1760508;79;21305;-49
2021/03/15 08:06:22;;;;;;;45.43;32.05;;;;;;;5.81;83.25;97723.17;1754579;79;21157;-51
2021/03/15 08:08:52;;;;;;;47.15;33.80;;;;;;;5.94;83.07;97723.16;1762921;81;21592;-51
2021/03/15 08:11:21;;;;;;;39.03;25.45;;;;;;;6.06;82.36;97725.94;1749003;80;21587;-56
2021/03/15 08:13:51;;;;;;;42.38;29.10;;;;;;;6.08;81.06;97718.71;1757937;81;21190;-51
2021/03/15 08:16:24;;;;;;;59.88;46.48;;;;;;;6.06;81.23;97718.09;1735262;81;21171;-56
2021/03/15 08:18:56;;;;;;;35.68;23.25;;;;;;;6.15;81.24;97724.72;1731408;83;21162;-55
2021/03/15 08:21:28;;;;;;;49.45;33.95;;;;;;;6.25;80.33;97736.87;1742890;81;21312;-56
2021/03/15 08:23:58;;;;;;;39.18;25.68;;;;;;;6.31;79.51;97728.69;1757288;81;21185;-57
2021/03/15 08:26:27;;;;;;;64.50;43.02;;;;;;;6.27;79.76;97726.19;1745746;81;21747;-55
2021/03/15 08:29:00;;;;;;;36.77;24.80;;;;;;;6.32;79.29;97735.53;1734029;81;21182;-54
2021/03/15 08:31:36;;;;;;;55.83;41.28;;;;;;;6.35;79.25;97736.41;1788528;79;21150;-54
2021/03/15 08:34:05;;;;;;;45.33;30.35;;;;;;;6.33;78.83;97741.05;1799640;78;21625;-54
2021/03/15 08:36:41;;;;;;;40.45;24.65;;;;;;;6.33;79.04;97750.22;1792883;79;21174;-58
2021/03/15 08:39:35;;;;;;;69.07;51.85;;;;;;;6.31;79.05;97738.66;1741810;81;21562;-55
2021/03/15 08:42:12;;;;;;;44.67;30.48;;;;;;;6.37;79.29;97737.02;1769891;78;21185;-57
2021/03/15 08:44:46;;;;;;;76.20;51.18;;;;;;;6.50;78.97;97736.16;1808278;78;21128;-56
2021/03/15 08:47:37;;;;;;;40.83;29.63;;;;;;;6.52;78.81;97741.46;1786460;78;21169;-54
2021/03/15 08:50:35;;;;;;;41.75;27.42;;;;;;;6.52;78.63;97739.36;1769899;80;21179;-54
2021/03/15 08:53:05;;;;;;;64.32;51.33;;;;;;;6.55;78.62;97738.95;1787115;79;21323;-56
2021/03/15 08:55:48;;;;;;;71.12;56.33;;;;;;;6.51;78.75;97738.55;1786778;78;21185;-52
2021/03/15 08:58:41;;;;;;;52.83;39.73;;;;;;;6.49;79.02;97734.05;1786594;78;21170;-55
2021/03/15 09:01:16;;;;;;;60.10;37.90;;;;;;;6.57;78.98;97738.23;1787488;78;21147;-54
2021/03/15 09:04:01;;;;;;;61.15;39.80;;;;;;;6.56;79.02;97738.73;1789174;78;21173;-55
2021/03/15 09:06:38;;;;;;;46.42;33.10;;;;;;;6.57;78.79;97737.72;1786638;78;21739;-56
2021/03/15 09:09:17;;;;;;;39.20;27.70;;;;;;;6.53;78.67;97729.17;1789248;79;21471;-54
2021/03/15 09:11:46;;;;;;;33.65;22.95;;;;;;;6.47;78.81;97733.42;1786809;79;21186;-52
2021/03/15 09:14:21;;;;;;;41.20;29.87;;;;;;;6.35;79.22;97735.89;1786598;79;21276;-52
2021/03/15 09:17:02;;;;;;;33.50;23.40;;;;;;;6.33;79.60;97738.44;1786804;78;21190;-52
2021/03/15 09:19:43;;;;;;;43.42;25.97;;;;;;;6.38;79.97;97737.31;1751405;81;21146;-53
2021/03/15 09:25:13;;;;;;;36.75;22.17;;;;;;;6.60;79.17;97732.08;1817606;78;23126;-55
2021/03/15 09:27:47;;;;;;;36.90;24.37;;;;;;;6.59;79.32;97734.88;1785677;79;21338;-56
2021/03/15 09:30:30;;;;;;;43.68;27.60;;;;;;;6.60;79.07;97728.66;1782879;79;21149;-56
2021/03/15 09:32:59;;;;;;;42.60;27.70;;;;;;;6.59;79.09;97730.95;1792202;80;21177;-56
2021/03/15 09:35:37;;;;;;;80.53;53.63;;;;;;;6.67;79.78;97726.00;1793330;79;21285;-57
2021/03/15 09:38:09;;;;;;;46.35;31.70;;;;;;;6.71;79.18;97719.30;1728168;82;21327;-55
2021/03/15 09:40:49;;;;;;;54.13;40.88;;;;;;;6.59;79.47;97720.48;1707735;81;21169;-53
2021/03/15 09:43:23;;;;;;;38.08;22.87;;;;;;;6.56;80.82;97720.41;1723064;81;21674;-54
2021/03/15 09:45:57;;;;;;;34.45;22.65;;;;;;;6.56;81.91;97713.86;1715398;83;21319;-55
2021/03/15 09:48:30;;;;;;;40.08;24.47;;;;;;;6.59;82.67;97713.42;1716068;83;21617;-55
2021/03/15 09:51:08;;;;;;;29.23;18.85;;;;;;;6.59;82.96;97715.24;1715668;83;21173;-57
2021/03/15 09:53:54;;;;;;;40.15;24.27;;;;;;;6.54;82.92;97711.97;1693714;84;21146;-61
2021/03/15 09:56:28;;;;;;;37.10;24.37;;;;;;;6.47;84.54;97712.48;1707333;84;21209;-61
2021/03/15 09:59:11;;;;;;;34.70;22.22;;;;;;;6.40;85.71;97711.72;1681307;85;21339;-57
2021/03/15 10:01:46;;;;;;;35.63;22.75;;;;;;;6.33;87.80;97713.06;1684704;84;21324;-51
2021/03/15 10:04:35;;;;;;;34.30;20.50;;;;;;;6.32;88.50;97706.73;1818213;79;22840;-55
2021/03/15 10:07:23;;;;;;;38.05;24.10;;;;;;;6.22;88.87;97703.25;1793008;80;21271;-55
2021/03/15 10:10:15;;;;;;;47.08;30.25;;;;;;;6.15;90.98;97702.98;1792822;80;21213;-55
2021/03/15 10:13:05;;;;;;;61.33;36.48;;;;;;;6.11;92.37;97708.62;1794058;79;21178;-57
2021/03/15 10:15:37;;;;;;;46.20;28.23;;;;;;;6.07;92.98;97704.00;1779576;80;21169;-55
2021/03/15 10:18:22;;;;;;;47.70;28.17;;;;;;;6.06;94.49;97692.73;1815808;79;22944;-56
2021/03/15 10:20:54;;;;;;;54.33;30.32;;;;;;;6.01;94.96;97698.28;1784771;80;21320;-54
2021/03/15 10:23:31;;;;;;;55.52;36.40;;;;;;;5.98;95.10;97698.71;1792345;80;21331;-55
2021/03/15 10:26:05;;;;;;;65.65;40.25;;;;;;;6.02;95.93;97703.81;1771787;80;21612;-56
2021/03/15 10:28:40;;;;;;;34.60;24.37;;;;;;;6.10;96.74;97703.59;1772576;80;21276;-55
2021/03/15 10:31:11;;;;;;;50.48;29.57;;;;;;;6.17;96.15;97700.45;1769202;80;21625;-55
2021/03/15 10:33:45;;;;;;;;;;;;;;;6.23;96.01;97702.73;1780085;80;21182;-56
2021/03/15 10:36:23;;;;;;;69.20;35.98;;;;;;;6.27;96.42;97695.58;1775990;81;20419;-51
2021/03/15 10:38:57;;;;;;;42.05;23.02;;;;;;;6.25;95.30;97699.40;1697812;84;21158;-52
2021/03/15 10:41:26;;;;;;;33.95;23.65;;;;;;;6.19;96.79;97699.72;1726417;82;21191;-56
2021/03/15 10:43:59;;;;;;;27.80;17.48;;;;;;;6.19;97.86;97694.99;1707819;84;21221;-55
2021/03/15 10:46:46;;;;;;;36.80;22.82;;;;;;;6.19;98.58;97690.56;1727044;82;21559;-55
2021/03/15 10:49:21;;;;;;;57.48;40.28;;;;;;;6.23;100.00;97690.96;1723158;82;21152;-55
2021/03/15 10:51:53;;;;;;;50.28;34.10;;;;;;;6.26;100.00;97693.98;1729057;82;21290;-58
2021/03/15 10:54:37;;;;;;;42.03;30.70;;;;;;;6.29;100.00;97693.55;1724999;82;21304;-57
2021/03/15 10:57:18;;;;;;;36.25;24.37;;;;;;;6.28;100.00;97691.94;1725204;83;21230;-57
2021/03/15 10:59:51;;;;;;;30.60;19.32;;;;;;;6.26;100.00;97691.87;1735009;83;21579;-52
2021/03/15 11:02:26;;;;;;;29.40;20.00;;;;;;;6.21;100.00;97686.45;1734715;83;21191;-58
2021/03/15 11:05:01;;;;;;;36.53;26.50;;;;;;;6.20;100.00;97680.41;1734567;83;21166;-62
2021/03/15 11:07:41;;;;;;;42.90;30.72;;;;;;;6.24;100.00;97675.55;1780434;79;23115;-57
2021/03/15 11:10:20;;;;;;;49.75;33.50;;;;;;;6.19;100.00;97676.68;1739275;82;21658;-55
2021/03/15 11:13:00;;;;;;;53.00;38.58;;;;;;;6.19;100.00;97672.24;1722014;83;21162;-55
2021/03/15 11:15:38;;;;;;;36.48;25.25;;;;;;;6.23;100.00;97674.75;1757000;80;21170;-54
2021/03/15 11:18:21;;;;;;;43.28;27.05;;;;;;;6.28;100.00;97661.05;1735559;80;21146;-62
2021/03/15 11:20:56;;;;;;;38.17;24.18;;;;;;;6.35;100.00;97665.22;1738450;82;21288;-59
2021/03/15 11:23:39;;;;;;;34.75;22.67;;;;;;;6.36;100.00;97660.79;1829538;78;23172;-55
2021/03/15 11:26:15;;;;;;;41.98;29.42;;;;;;;6.37;100.00;97655.37;1791811;79;21287;-55
2021/03/15 11:28:47;;;;;;;36.60;25.20;;;;;;;6.44;100.00;97656.63;1743579;82;21608;-55
2021/03/15 11:31:23;;;;;;;42.67;25.80;;;;;;;6.40;100.00;97650.20;1759735;80;21252;-58
2021/03/15 11:33:57;;;;;;;76.60;54.20;;;;;;;6.35;100.00;97653.45;1724142;82;21404;-50
2021/03/15 11:36:31;;;;;;;58.02;34.25;;;;;;;6.24;100.00;97652.80;1734490;82;21238;-50
2021/03/15 11:39:05;;;;;;;55.70;48.58;;;;;;;6.12;100.00;97652.66;1707587;83;21287;-58
2021/03/15 11:41:43;;;;;;;30.60;20.23;;;;;;;6.13;100.00;97652.14;1723816;82;21206;-54
2021/03/15 11:44:17;;;;;;;40.58;26.12;;;;;;;6.10;100.00;97652.07;1707350;84;21344;-56
2021/03/15 11:46:47;;;;;;;48.58;42.25;;;;;;;6.10;100.00;97639.50;1706878;84;21299;-51
2021/03/15 11:49:21;;;;;;;32.05;20.57;;;;;;;6.04;100.00;97649.48;1698008;84;21162;-50
2021/03/15 11:51:56;;;;;;;39.42;26.65;;;;;;;5.99;100.00;97641.45;1693849;84;21130;-53
2021/03/15 11:54:49;;;;;;;29.95;19.15;;;;;;;5.95;100.00;97635.83;1793794;79;22972;-50
2021/03/15 11:57:20;;;;;;;35.43;22.07;;;;;;;5.90;100.00;97636.92;1719874;82;21626;-54
2021/03/15 11:59:52;;;;;;;31.23;21.52;;;;;;;5.90;100.00;97636.92;1723347;82;21199;-53
2021/03/15 12:02:23;;;;;;;29.18;19.00;;;;;;;5.91;100.00;97639.03;1736361;82;21284;-54
2021/03/15 12:04:55;;;;;;;31.40;20.88;;;;;;;5.88;100.00;97636.33;1746878;82;21218;-53
2021/03/15 12:07:25;;;;;;;36.25;22.77;;;;;;;5.85;100.00;97630.23;1725191;82;21311;-55
2021/03/15 12:09:56;;;;;;;25.80;17.32;;;;;;;5.82;100.00;97631.42;1723238;83;21210;-55
2021/03/15 12:12:27;;;;;;;36.70;28.02;;;;;;;5.78;100.00;97630.22;1730604;80;21326;-61
2021/03/15 12:15:01;;;;;;;39.70;25.17;;;;;;;5.71;100.00;97629.95;1761406;80;21162;-55
2021/03/15 12:17:34;;;;;;;38.60;28.83;;;;;;;5.65;100.00;97630.27;1763801;80;21338;-55
2021/03/15 12:20:08;;;;;;;;;;;;;;;5.57;100.00;97626.59;1731638;80;21232;-54
2021/03/15 12:22:46;;;;;;;27.75;17.75;;;;;;;5.48;100.00;97625.20;1769519;80;20344;-56
2021/03/15 12:25:17;;;;;;;31.75;21.70;;;;;;;5.37;100.00;97632.36;1766543;80;21158;-54
2021/03/15 12:27:52;;;;;;;43.95;24.27;;;;;;;5.30;100.00;97628.45;1685157;84;21149;-57
2021/03/15 12:30:24;;;;;;;30.48;17.95;;;;;;;5.23;100.00;97629.77;1707633;83;21642;-56
2021/03/15 12:32:54;;;;;;;34.78;20.37;;;;;;;5.13;100.00;97632.49;1688950;84;21344;-49
2021/03/15 12:35:25;;;;;;;31.07;19.57;;;;;;;5.06;100.00;97622.05;1708415;84;21612;-55
2021/03/15 12:37:55;;;;;;;32.25;19.40;;;;;;;5.01;100.00;97636.22;1742607;82;21193;-57
2021/03/15 12:40:25;;;;;;;34.08;19.82;;;;;;;4.95;100.00;97623.97;1712873;84;21323;-57
2021/03/15 12:42:55;;;;;;;32.55;20.75;;;;;;;4.88;100.00;97632.31;1712278;84;21672;-55
2021/03/15 12:45:27;;;;;;;31.68;20.30;;;;;;;4.79;100.00;97634.30;1695801;83;21530;-54
2021/03/15 12:48:00;;;;;;;27.82;18.07;;;;;;;4.70;100.00;97636.33;1655647;85;21185;-55
2021/03/15 12:50:33;;;;;;;32.60;22.45;;;;;;;4.65;100.00;97632.70;1725064;82;21146;-60
2021/03/15 12:53:19;;;;;;;25.37;16.85;;;;;;;4.59;100.00;97636.91;1703638;83;21173;-57
2021/03/15 12:56:01;;;;;;;24.95;15.63;;;;;;;4.47;100.00;97628.03;1780201;79;23154;-55
2021/03/15 12:58:31;;;;;;;28.10;18.67;;;;;;;4.34;100.00;97646.28;1719882;82;21205;-57
2021/03/15 13:01:02;;;;;;;27.25;19.60;;;;;;;4.23;100.00;97634.11;1737135;82;21547;-53
2021/03/15 13:03:35;;;;;;;28.30;18.42;;;;;;;4.21;100.00;97631.41;1737049;82;21231;-54
2021/03/15 13:06:13;;;;;;;26.25;15.65;;;;;;;4.18;100.00;97626.07;1734780;82;21214;-49
2021/03/15 13:08:51;;;;;;;29.77;19.15;;;;;;;4.19;100.00;97639.44;1722407;83;21118;-53
2021/03/15 13:11:32;;;;;;;31.20;19.27;;;;;;;4.16;100.00;97628.58;1718768;83;21359;-55
2021/03/15 13:14:21;;;;;;;26.37;15.20;;;;;;;4.15;100.00;97627.78;1746865;80;21220;-59
2021/03/15 13:16:58;;;;;;;29.55;16.73;;;;;;;4.17;100.00;97627.08;1723002;83;21276;-55
2021/03/15 13:19:28;;;;;;;26.68;16.95;;;;;;;4.17;100.00;97630.19;1773570;80;21566;-56
2021/03/15 13:22:01;;;;;;;31.68;19.32;;;;;;;4.16;100.00;97633.80;1694881;84;21303;-55
2021/03/15 13:24:32;;;;;;;46.18;36.77;;;;;;;4.15;100.00;97626.48;1718751;82;21332;-51
2021/03/15 13:27:05;;;;;;;26.75;15.38;;;;;;;4.15;100.00;97625.17;1698988;82;21197;-53
2021/03/15 13:29:38;;;;;;;27.25;15.58;;;;;;;4.18;100.00;97631.78;1731834;82;21206;-57
2021/03/15 13:32:10;;;;;;;35.90;20.32;;;;;;;4.16;100.00;97629.89;1676141;82;21165;-48
2021/03/15 13:34:39;;;;;;;29.75;17.73;;;;;;;4.11;100.00;97627.86;1714261;82;21189;-54
2021/03/15 13:37:09;;;;;;;31.45;16.20;;;;;;;4.05;100.00;97629.15;1713252;82;21605;-54
2021/03/15 13:39:58;;;;;;;31.20;18.75;;;;;;;4.04;100.00;97634.87;1687563;83;21131;-55
2021/03/15 13:42:31;;;;;;;30.37;17.73;;;;;;;4.00;100.00;97624.02;1681462;84;21205;-48
2021/03/15 13:45:12;;;;;;;26.97;15.35;;;;;;;4.03;100.00;97640.28;1770327;79;22804;-53
2021/03/15 13:47:43;;;;;;;27.32;15.65;;;;;;;3.98;100.00;97635.15;1744879;82;21161;-52
2021/03/15 13:50:18;;;;;;;25.85;15.00;;;;;;;3.94;100.00;97627.91;1674986;80;21158;-56
2021/03/15 13:52:48;;;;;;;30.13;18.40;;;;;;;3.90;100.00;97624.91;1723298;83;21161;-58
2021/03/15 13:55:20;;;;;;;29.55;18.77;;;;;;;3.89;100.00;97620.66;1723614;83;21283;-55
2021/03/15 13:57:49;;;;;;;39.87;26.00;;;;;;;3.89;100.00;97622.47;1723691;80;21198;-52
2021/03/15 14:00:46;;;;;;;30.88;19.77;;;;;;;3.88;100.00;97621.67;1832379;76;27981;-48
2021/03/15 14:03:32;;;;;;;36.15;23.12;;;;;;;3.84;100.00;97614.42;1862808;76;21109;-54
2021/03/15 14:06:06;;;;;;;32.08;21.00;;;;;;;3.81;100.00;97626.56;1858114;77;21327;-55
2021/03/15 14:08:37;;;;;;;31.37;20.35;;;;;;;3.79;100.00;97605.91;1859831;77;21161;-51
2021/03/15 14:11:07;;;;;;;29.83;18.40;;;;;;;3.75;100.00;97613.00;1855769;76;21516;-51
2021/03/15 14:13:37;;;;;;;30.10;16.73;;;;;;;3.76;100.00;97614.60;1825599;76;21158;-51
2021/03/15 14:16:08;;;;;;;31.73;18.37;;;;;;;3.73;100.00;97605.38;1849888;76;21240;-54
2021/03/15 14:18:39;;;;;;;30.50;17.92;;;;;;;3.67;100.00;97603.05;1850014;77;21215;-54
2021/03/15 14:21:29;;;;;;;30.93;21.17;;;;;;;3.65;100.00;97598.52;1859696;77;21275;-54
2021/03/15 14:24:08;;;;;;;26.93;17.13;;;;;;;3.65;100.00;97598.52;1835280;77;21153;-57
2021/03/15 14:26:49;;;;;;;24.93;15.00;;;;;;;3.65;100.00;97603.73;1792531;78;21160;-53
2021/03/15 14:29:19;;;;;;;25.20;14.20;;;;;;;3.62;100.00;97597.62;1822688;78;21628;-52
2021/03/15 14:32:10;;;;;;;25.73;14.43;;;;;;;3.61;100.00;97593.88;1825099;77;21162;-56
2021/03/15 14:34:58;;;;;;;25.40;13.97;;;;;;;3.55;100.00;97596.76;1809247;76;21151;-56
2021/03/15 14:37:33;;;;;;;26.90;14.77;;;;;;;3.55;100.00;97614.20;1828869;76;21102;-48
2021/03/15 14:40:05;;;;;;;30.40;17.32;;;;;;;3.50;100.00;97606.98;1819655;79;22318;-47
2021/03/15 14:42:34;;;;;;;29.12;15.78;;;;;;;3.45;100.00;97620.58;1821909;77;21283;-49
2021/03/15 14:45:07;;;;;;;34.27;17.10;;;;;;;3.47;100.00;97600.84;1838060;77;21283;-49
2021/03/15 14:47:40;;;;;;;27.83;15.03;;;;;;;3.49;100.00;97596.23;1834119;77;21569;-49
2021/03/15 14:50:21;;;;;;;26.62;15.68;;;;;;;3.51;100.00;97585.14;1792126;79;23104;-48
2021/03/15 14:53:08;;;;;;;25.47;15.13;;;;;;;3.48;100.00;97593.33;1710171;83;21257;-48
2021/03/15 14:55:40;;;;;;;23.93;14.60;;;;;;;3.48;100.00;97584.70;1771171;80;21143;-57
2021/03/15 14:58:10;;;;;;;27.53;17.40;;;;;;;3.45;100.00;97588.52;1795544;80;21538;-51
2021/03/15 15:00:40;;;;;;;22.82;13.32;;;;;;;3.42;100.00;97581.88;1794289;80;21591;-53
2021/03/15 15:03:10;;;;;;;25.70;15.37;;;;;;;3.43;100.00;97590.49;1794531;80;22265;-55
